sensor_id;sensor_type;location;lat;lon;timestamp;P1;durP1;ratioP1;P2;durP2;ratioP2
56043;SDS011;41912;51.022;3.664;2023-09-30T00:00:54;11.77;;;5.22;;
56043;SDS011;41912;51.022;3.664;2023-09-30T00:03:20;10.70;;;5.10;;
56043;SDS011;41912;51.022;3.664;2023-09-30T00:05:45;9.27;;;5.20;;
56043;SDS011;41912;51.022;3.664;2023-09-30T00:08:11;12.13;;;5.35;;
56043;SDS011;41912;51.022;3.664;2023-09-30T00:10:37;11.02;;;4.65;;
56043;SDS011;41912;51.022;3.664;2023-09-30T00:13:02;12.20;;;5.30;;
56043;SDS011;41912;51.022;3.664;2023-09-30T00:15:28;8.18;;;5.15;;
56043;SDS011;41912;51.022;3.664;2023-09-30T00:17:54;13.77;;;5.57;;
56043;SDS011;41912;51.022;3.664;2023-09-30T00:20:19;9.57;;;5.03;;
56043;SDS011;41912;51.022;3.664;2023-09-30T00:22:45;10.52;;;5.60;;
56043;SDS011;41912;51.022;3.664;2023-09-30T00:25:11;15.43;;;5.90;;
56043;SDS011;41912;51.022;3.664;2023-09-30T00:27:37;8.88;;;5.72;;
56043;SDS011;41912;51.022;3.664;2023-09-30T00:30:04;9.93;;;4.90;;
56043;SDS011;41912;51.022;3.664;2023-09-30T00:32:31;10.88;;;5.75;;
56043;SDS011;41912;51.022;3.664;2023-09-30T00:34:57;9.88;;;4.90;;
56043;SDS011;41912;51.022;3.664;2023-09-30T00:37:24;14.70;;;4.80;;
56043;SDS011;41912;51.022;3.664;2023-09-30T00:39:49;14.77;;;5.53;;
56043;SDS011;41912;51.022;3.664;2023-09-30T00:42:15;12.80;;;5.50;;
56043;SDS011;41912;51.022;3.664;2023-09-30T00:44:40;14.60;;;5.35;;
56043;SDS011;41912;51.022;3.664;2023-09-30T00:47:06;13.63;;;5.40;;
56043;SDS011;41912;51.022;3.664;2023-09-30T00:49:33;13.77;;;5.40;;
56043;SDS011;41912;51.022;3.664;2023-09-30T00:51:59;7.80;;;4.60;;
56043;SDS011;41912;51.022;3.664;2023-09-30T00:54:26;11.00;;;5.15;;
56043;SDS011;41912;51.022;3.664;2023-09-30T00:56:52;10.90;;;4.93;;
56043;SDS011;41912;51.022;3.664;2023-09-30T00:59:21;16.38;;;5.68;;
56043;SDS011;41912;51.022;3.664;2023-09-30T01:01:47;12.52;;;5.75;;
56043;SDS011;41912;51.022;3.664;2023-09-30T01:04:13;11.55;;;5.05;;
56043;SDS011;41912;51.022;3.664;2023-09-30T01:06:39;12.88;;;6.20;;
56043;SDS011;41912;51.022;3.664;2023-09-30T01:09:06;10.43;;;5.43;;
56043;SDS011;41912;51.022;3.664;2023-09-30T01:11:34;10.30;;;5.05;;
56043;SDS011;41912;51.022;3.664;2023-09-30T01:13:59;14.07;;;5.05;;
56043;SDS011;41912;51.022;3.664;2023-09-30T01:16:25;15.32;;;5.00;;
56043;SDS011;41912;51.022;3.664;2023-09-30T01:18:50;9.82;;;4.57;;
56043;SDS011;41912;51.022;3.664;2023-09-30T01:21:16;16.67;;;5.38;;
56043;SDS011;41912;51.022;3.664;2023-09-30T01:23:43;10.38;;;4.75;;
56043;SDS011;41912;51.022;3.664;2023-09-30T01:26:11;17.50;;;5.18;;
56043;SDS011;41912;51.022;3.664;2023-09-30T01:28:38;9.25;;;5.00;;
56043;SDS011;41912;51.022;3.664;2023-09-30T01:31:04;11.68;;;4.65;;
56043;SDS011;41912;51.022;3.664;2023-09-30T01:33:30;14.10;;;4.60;;
56043;SDS011;41912;51.022;3.664;2023-09-30T01:35:57;11.40;;;5.03;;
56043;SDS011;41912;51.022;3.664;2023-09-30T01:38:23;12.45;;;5.25;;
56043;SDS011;41912;51.022;3.664;2023-09-30T01:40:49;12.20;;;4.30;;
56043;SDS011;41912;51.022;3.664;2023-09-30T01:43:14;13.18;;;4.70;;
56043;SDS011;41912;51.022;3.664;2023-09-30T01:45:40;10.15;;;4.90;;
56043;SDS011;41912;51.022;3.664;2023-09-30T01:48:07;12.35;;;5.13;;
56043;SDS011;41912;51.022;3.664;2023-09-30T01:50:36;12.55;;;5.47;;
56043;SDS011;41912;51.022;3.664;2023-09-30T01:53:02;12.15;;;4.97;;
56043;SDS011;41912;51.022;3.664;2023-09-30T01:55:28;10.57;;;5.18;;
56043;SDS011;41912;51.022;3.664;2023-09-30T01:57:54;14.43;;;5.10;;
56043;SDS011;41912;51.022;3.664;2023-09-30T02:00:19;16.85;;;6.30;;
56043;SDS011;41912;51.022;3.664;2023-09-30T02:02:45;12.57;;;4.80;;
56043;SDS011;41912;51.022;3.664;2023-09-30T02:05:11;11.30;;;4.75;;
56043;SDS011;41912;51.022;3.664;2023-09-30T02:07:36;10.75;;;5.00;;
56043;SDS011;41912;51.022;3.664;2023-09-30T02:10:03;11.90;;;5.00;;
56043;SDS011;41912;51.022;3.664;2023-09-30T02:12:29;8.10;;;4.40;;
56043;SDS011;41912;51.022;3.664;2023-09-30T02:14:54;12.45;;;4.82;;
56043;SDS011;41912;51.022;3.664;2023-09-30T02:17:20;16.20;;;5.05;;
56043;SDS011;41912;51.022;3.664;2023-09-30T02:19:45;17.55;;;5.72;;
56043;SDS011;41912;51.022;3.664;2023-09-30T02:22:12;14.13;;;5.53;;
56043;SDS011;41912;51.022;3.664;2023-09-30T02:24:37;11.25;;;4.93;;
56043;SDS011;41912;51.022;3.664;2023-09-30T02:27:05;9.93;;;4.88;;
56043;SDS011;41912;51.022;3.664;2023-09-30T02:29:30;9.30;;;4.75;;
56043;SDS011;41912;51.022;3.664;2023-09-30T02:31:56;15.35;;;5.45;;
56043;SDS011;41912;51.022;3.664;2023-09-30T02:34:22;13.52;;;5.53;;
56043;SDS011;41912;51.022;3.664;2023-09-30T02:36:48;24.35;;;6.22;;
56043;SDS011;41912;51.022;3.664;2023-09-30T02:39:14;17.27;;;5.75;;
56043;SDS011;41912;51.022;3.664;2023-09-30T02:41:41;11.68;;;5.75;;
56043;SDS011;41912;51.022;3.664;2023-09-30T02:44:07;13.65;;;5.18;;
56043;SDS011;41912;51.022;3.664;2023-09-30T02:46:33;13.32;;;4.85;;
56043;SDS011;41912;51.022;3.664;2023-09-30T02:49:00;9.38;;;4.57;;
56043;SDS011;41912;51.022;3.664;2023-09-30T02:51:26;10.75;;;4.85;;
56043;SDS011;41912;51.022;3.664;2023-09-30T02:53:53;17.33;;;6.38;;
56043;SDS011;41912;51.022;3.664;2023-09-30T02:56:18;13.38;;;5.25;;
56043;SDS011;41912;51.022;3.664;2023-09-30T02:58:45;14.43;;;5.93;;
56043;SDS011;41912;51.022;3.664;2023-09-30T03:01:14;14.55;;;5.57;;
56043;SDS011;41912;51.022;3.664;2023-09-30T03:03:43;15.05;;;5.22;;
56043;SDS011;41912;51.022;3.664;2023-09-30T03:06:09;16.38;;;6.22;;
56043;SDS011;41912;51.022;3.664;2023-09-30T03:08:35;14.10;;;5.97;;
56043;SDS011;41912;51.022;3.664;2023-09-30T03:11:01;19.23;;;5.93;;
56043;SDS011;41912;51.022;3.664;2023-09-30T03:13:28;15.63;;;6.03;;
56043;SDS011;41912;51.022;3.664;2023-09-30T03:15:54;15.80;;;6.18;;
56043;SDS011;41912;51.022;3.664;2023-09-30T03:18:22;14.23;;;6.47;;
56043;SDS011;41912;51.022;3.664;2023-09-30T03:20:51;16.73;;;5.53;;
56043;SDS011;41912;51.022;3.664;2023-09-30T03:23:25;14.48;;;5.72;;
56043;SDS011;41912;51.022;3.664;2023-09-30T03:25:58;23.42;;;5.40;;
56043;SDS011;41912;51.022;3.664;2023-09-30T03:28:24;12.25;;;5.10;;
56043;SDS011;41912;51.022;3.664;2023-09-30T03:30:54;10.27;;;5.00;;
56043;SDS011;41912;51.022;3.664;2023-09-30T03:33:21;15.57;;;4.90;;
56043;SDS011;41912;51.022;3.664;2023-09-30T03:35:47;15.93;;;5.18;;
56043;SDS011;41912;51.022;3.664;2023-09-30T03:38:13;14.73;;;5.95;;
56043;SDS011;41912;51.022;3.664;2023-09-30T03:40:41;19.13;;;5.40;;
56043;SDS011;41912;51.022;3.664;2023-09-30T03:43:12;15.75;;;5.50;;
56043;SDS011;41912;51.022;3.664;2023-09-30T03:45:39;16.15;;;4.88;;
56043;SDS011;41912;51.022;3.664;2023-09-30T03:48:06;14.98;;;5.72;;
56043;SDS011;41912;51.022;3.664;2023-09-30T03:50:32;11.68;;;4.93;;
56043;SDS011;41912;51.022;3.664;2023-09-30T03:53:04;10.85;;;4.80;;
56043;SDS011;41912;51.022;3.664;2023-09-30T03:55:32;14.57;;;5.20;;
56043;SDS011;41912;51.022;3.664;2023-09-30T03:57:58;16.17;;;5.05;;
56043;SDS011;41912;51.022;3.664;2023-09-30T04:00:24;10.20;;;5.57;;
56043;SDS011;41912;51.022;3.664;2023-09-30T04:02:51;18.30;;;5.55;;
56043;SDS011;41912;51.022;3.664;2023-09-30T04:05:23;15.45;;;5.55;;
56043;SDS011;41912;51.022;3.664;2023-09-30T04:07:57;17.17;;;5.47;;
56043;SDS011;41912;51.022;3.664;2023-09-30T04:10:23;12.00;;;5.60;;
56043;SDS011;41912;51.022;3.664;2023-09-30T04:12:49;14.02;;;4.80;;
56043;SDS011;41912;51.022;3.664;2023-09-30T04:15:14;13.43;;;5.28;;
56043;SDS011;41912;51.022;3.664;2023-09-30T04:17:40;12.27;;;4.82;;
56043;SDS011;41912;51.022;3.664;2023-09-30T04:20:06;12.27;;;5.85;;
56043;SDS011;41912;51.022;3.664;2023-09-30T04:22:41;11.02;;;4.75;;
56043;SDS011;41912;51.022;3.664;2023-09-30T04:25:13;13.88;;;5.18;;
56043;SDS011;41912;51.022;3.664;2023-09-30T04:27:41;14.32;;;5.25;;
56043;SDS011;41912;51.022;3.664;2023-09-30T04:30:12;15.90;;;5.00;;
56043;SDS011;41912;51.022;3.664;2023-09-30T04:32:40;13.88;;;5.00;;
56043;SDS011;41912;51.022;3.664;2023-09-30T04:35:05;13.77;;;5.05;;
56043;SDS011;41912;51.022;3.664;2023-09-30T04:37:34;11.55;;;5.40;;
56043;SDS011;41912;51.022;3.664;2023-09-30T04:40:04;19.83;;;5.88;;
56043;SDS011;41912;51.022;3.664;2023-09-30T04:42:40;13.50;;;6.35;;
56043;SDS011;41912;51.022;3.664;2023-09-30T04:45:10;12.82;;;6.00;;
56043;SDS011;41912;51.022;3.664;2023-09-30T04:47:36;21.90;;;5.88;;
56043;SDS011;41912;51.022;3.664;2023-09-30T04:50:04;12.43;;;5.68;;
56043;SDS011;41912;51.022;3.664;2023-09-30T04:52:32;13.75;;;5.85;;
56043;SDS011;41912;51.022;3.664;2023-09-30T04:54:58;15.23;;;5.72;;
56043;SDS011;41912;51.022;3.664;2023-09-30T04:57:25;14.70;;;6.20;;
56043;SDS011;41912;51.022;3.664;2023-09-30T04:59:51;13.32;;;6.43;;
56043;SDS011;41912;51.022;3.664;2023-09-30T05:02:16;18.10;;;6.05;;
56043;SDS011;41912;51.022;3.664;2023-09-30T05:04:42;16.80;;;6.10;;
56043;SDS011;41912;51.022;3.664;2023-09-30T05:07:08;14.52;;;6.10;;
56043;SDS011;41912;51.022;3.664;2023-09-30T05:09:34;24.42;;;6.47;;
56043;SDS011;41912;51.022;3.664;2023-09-30T05:11:59;18.02;;;6.63;;
56043;SDS011;41912;51.022;3.664;2023-09-30T05:14:25;21.50;;;5.85;;
56043;SDS011;41912;51.022;3.664;2023-09-30T05:16:52;11.90;;;5.78;;
56043;SDS011;41912;51.022;3.664;2023-09-30T05:19:18;16.67;;;5.90;;
56043;SDS011;41912;51.022;3.664;2023-09-30T05:21:45;17.52;;;6.03;;
56043;SDS011;41912;51.022;3.664;2023-09-30T05:24:12;14.55;;;6.43;;
56043;SDS011;41912;51.022;3.664;2023-09-30T05:26:37;15.88;;;6.72;;
56043;SDS011;41912;51.022;3.664;2023-09-30T05:29:03;19.95;;;7.35;;
56043;SDS011;41912;51.022;3.664;2023-09-30T05:31:29;15.35;;;6.47;;
56043;SDS011;41912;51.022;3.664;2023-09-30T05:33:54;17.38;;;6.18;;
56043;SDS011;41912;51.022;3.664;2023-09-30T05:36:20;16.73;;;6.47;;
56043;SDS011;41912;51.022;3.664;2023-09-30T05:38:46;14.43;;;6.40;;
56043;SDS011;41912;51.022;3.664;2023-09-30T05:41:13;17.35;;;6.97;;
56043;SDS011;41912;51.022;3.664;2023-09-30T05:43:40;17.77;;;6.53;;
56043;SDS011;41912;51.022;3.664;2023-09-30T05:46:08;16.45;;;6.72;;
56043;SDS011;41912;51.022;3.664;2023-09-30T05:48:34;15.60;;;6.93;;
56043;SDS011;41912;51.022;3.664;2023-09-30T05:50:59;13.48;;;6.55;;
56043;SDS011;41912;51.022;3.664;2023-09-30T05:53:26;17.10;;;5.55;;
56043;SDS011;41912;51.022;3.664;2023-09-30T05:55:53;16.40;;;6.03;;
56043;SDS011;41912;51.022;3.664;2023-09-30T05:58:18;15.90;;;6.18;;
56043;SDS011;41912;51.022;3.664;2023-09-30T06:00:44;19.88;;;6.32;;
56043;SDS011;41912;51.022;3.664;2023-09-30T06:03:10;13.50;;;5.68;;
56043;SDS011;41912;51.022;3.664;2023-09-30T06:05:38;16.33;;;7.38;;
56043;SDS011;41912;51.022;3.664;2023-09-30T06:08:05;20.05;;;7.28;;
56043;SDS011;41912;51.022;3.664;2023-09-30T06:10:34;18.73;;;7.90;;
56043;SDS011;41912;51.022;3.664;2023-09-30T06:13:00;17.33;;;7.22;;
56043;SDS011;41912;51.022;3.664;2023-09-30T06:15:27;16.75;;;7.07;;
56043;SDS011;41912;51.022;3.664;2023-09-30T06:17:53;22.63;;;7.63;;
56043;SDS011;41912;51.022;3.664;2023-09-30T06:20:19;21.20;;;8.38;;
56043;SDS011;41912;51.022;3.664;2023-09-30T06:22:47;17.55;;;7.45;;
56043;SDS011;41912;51.022;3.664;2023-09-30T06:25:17;18.25;;;6.72;;
56043;SDS011;41912;51.022;3.664;2023-09-30T06:27:43;19.92;;;7.07;;
56043;SDS011;41912;51.022;3.664;2023-09-30T06:30:12;17.20;;;7.57;;
56043;SDS011;41912;51.022;3.664;2023-09-30T06:32:40;19.75;;;7.40;;
56043;SDS011;41912;51.022;3.664;2023-09-30T06:35:07;18.98;;;7.05;;
56043;SDS011;41912;51.022;3.664;2023-09-30T06:37:36;19.67;;;6.80;;
56043;SDS011;41912;51.022;3.664;2023-09-30T06:40:03;24.67;;;7.72;;
56043;SDS011;41912;51.022;3.664;2023-09-30T06:42:33;18.67;;;7.25;;
56043;SDS011;41912;51.022;3.664;2023-09-30T06:45:00;22.73;;;7.45;;
56043;SDS011;41912;51.022;3.664;2023-09-30T06:47:26;19.00;;;8.10;;
56043;SDS011;41912;51.022;3.664;2023-09-30T06:49:52;22.92;;;7.00;;
56043;SDS011;41912;51.022;3.664;2023-09-30T06:52:18;21.58;;;8.52;;
56043;SDS011;41912;51.022;3.664;2023-09-30T06:54:45;23.25;;;7.88;;
56043;SDS011;41912;51.022;3.664;2023-09-30T06:57:10;23.77;;;8.25;;
56043;SDS011;41912;51.022;3.664;2023-09-30T06:59:36;26.90;;;8.23;;
56043;SDS011;41912;51.022;3.664;2023-09-30T07:02:02;23.95;;;8.90;;
56043;SDS011;41912;51.022;3.664;2023-09-30T07:04:29;25.55;;;8.80;;
56043;SDS011;41912;51.022;3.664;2023-09-30T07:06:55;23.35;;;8.90;;
56043;SDS011;41912;51.022;3.664;2023-09-30T07:09:20;22.63;;;9.13;;
56043;SDS011;41912;51.022;3.664;2023-09-30T07:11:46;22.40;;;8.93;;
56043;SDS011;41912;51.022;3.664;2023-09-30T07:14:14;18.83;;;8.90;;
56043;SDS011;41912;51.022;3.664;2023-09-30T07:16:39;31.02;;;9.40;;
56043;SDS011;41912;51.022;3.664;2023-09-30T07:19:05;23.73;;;9.45;;
56043;SDS011;41912;51.022;3.664;2023-09-30T07:21:31;28.08;;;8.30;;
56043;SDS011;41912;51.022;3.664;2023-09-30T07:23:56;22.77;;;8.00;;
56043;SDS011;41912;51.022;3.664;2023-09-30T07:26:25;22.10;;;8.75;;
56043;SDS011;41912;51.022;3.664;2023-09-30T07:28:53;18.25;;;7.22;;
56043;SDS011;41912;51.022;3.664;2023-09-30T07:31:20;19.42;;;7.28;;
56043;SDS011;41912;51.022;3.664;2023-09-30T07:33:47;24.25;;;7.13;;
56043;SDS011;41912;51.022;3.664;2023-09-30T07:36:13;19.92;;;7.18;;
56043;SDS011;41912;51.022;3.664;2023-09-30T07:38:39;22.13;;;7.22;;
56043;SDS011;41912;51.022;3.664;2023-09-30T07:41:05;21.40;;;7.57;;
56043;SDS011;41912;51.022;3.664;2023-09-30T07:43:31;26.45;;;7.72;;
56043;SDS011;41912;51.022;3.664;2023-09-30T07:45:56;24.75;;;7.63;;
56043;SDS011;41912;51.022;3.664;2023-09-30T07:48:22;22.15;;;7.18;;
56043;SDS011;41912;51.022;3.664;2023-09-30T07:50:47;23.80;;;7.07;;
56043;SDS011;41912;51.022;3.664;2023-09-30T07:53:13;25.50;;;8.23;;
56043;SDS011;41912;51.022;3.664;2023-09-30T07:55:39;26.55;;;7.57;;
56043;SDS011;41912;51.022;3.664;2023-09-30T07:58:04;26.65;;;8.38;;
56043;SDS011;41912;51.022;3.664;2023-09-30T08:00:30;24.85;;;7.47;;
56043;SDS011;41912;51.022;3.664;2023-09-30T08:02:58;23.33;;;7.47;;
56043;SDS011;41912;51.022;3.664;2023-09-30T08:05:25;24.58;;;7.43;;
56043;SDS011;41912;51.022;3.664;2023-09-30T08:07:51;30.25;;;8.05;;
56043;SDS011;41912;51.022;3.664;2023-09-30T08:10:17;23.40;;;7.68;;
56043;SDS011;41912;51.022;3.664;2023-09-30T08:12:43;19.55;;;7.10;;
56043;SDS011;41912;51.022;3.664;2023-09-30T08:15:13;22.67;;;7.72;;
56043;SDS011;41912;51.022;3.664;2023-09-30T08:17:39;29.70;;;7.57;;
56043;SDS011;41912;51.022;3.664;2023-09-30T08:20:05;34.90;;;8.30;;
56043;SDS011;41912;51.022;3.664;2023-09-30T08:22:32;27.63;;;9.38;;
56043;SDS011;41912;51.022;3.664;2023-09-30T08:24:58;27.48;;;8.90;;
56043;SDS011;41912;51.022;3.664;2023-09-30T08:27:24;36.13;;;10.57;;
56043;SDS011;41912;51.022;3.664;2023-09-30T08:29:49;32.30;;;9.77;;
56043;SDS011;41912;51.022;3.664;2023-09-30T08:32:15;36.33;;;11.20;;
56043;SDS011;41912;51.022;3.664;2023-09-30T08:34:41;43.42;;;11.93;;
56043;SDS011;41912;51.022;3.664;2023-09-30T08:37:07;49.45;;;12.55;;
56043;SDS011;41912;51.022;3.664;2023-09-30T08:39:32;49.90;;;12.13;;
56043;SDS011;41912;51.022;3.664;2023-09-30T08:42:02;35.40;;;11.73;;
56043;SDS011;41912;51.022;3.664;2023-09-30T08:44:30;39.35;;;12.52;;
56043;SDS011;41912;51.022;3.664;2023-09-30T08:46:56;44.20;;;14.43;;
56043;SDS011;41912;51.022;3.664;2023-09-30T08:49:22;36.70;;;11.95;;
56043;SDS011;41912;51.022;3.664;2023-09-30T08:51:50;41.33;;;12.85;;
56043;SDS011;41912;51.022;3.664;2023-09-30T08:54:16;43.17;;;13.75;;
56043;SDS011;41912;51.022;3.664;2023-09-30T08:56:41;40.75;;;13.68;;
56043;SDS011;41912;51.022;3.664;2023-09-30T08:59:12;42.45;;;12.93;;
56043;SDS011;41912;51.022;3.664;2023-09-30T09:01:40;36.22;;;13.32;;
56043;SDS011;41912;51.022;3.664;2023-09-30T09:04:05;40.13;;;14.13;;
56043;SDS011;41912;51.022;3.664;2023-09-30T09:06:32;41.17;;;15.15;;
56043;SDS011;41912;51.022;3.664;2023-09-30T09:09:14;41.40;;;14.88;;
56043;SDS011;41912;51.022;3.664;2023-09-30T09:11:41;39.63;;;14.88;;
56043;SDS011;41912;51.022;3.664;2023-09-30T09:14:08;34.97;;;12.98;;
56043;SDS011;41912;51.022;3.664;2023-09-30T09:16:34;50.83;;;15.20;;
56043;SDS011;41912;51.022;3.664;2023-09-30T09:19:08;35.88;;;14.30;;
56043;SDS011;41912;51.022;3.664;2023-09-30T09:21:39;44.53;;;14.52;;
56043;SDS011;41912;51.022;3.664;2023-09-30T09:24:35;41.70;;;14.65;;
56043;SDS011;41912;51.022;3.664;2023-09-30T09:27:11;43.90;;;13.25;;
56043;SDS011;41912;51.022;3.664;2023-09-30T09:29:38;35.15;;;11.70;;
56043;SDS011;41912;51.022;3.664;2023-09-30T09:32:17;40.00;;;12.00;;
56043;SDS011;41912;51.022;3.664;2023-09-30T09:34:44;33.63;;;10.45;;
56043;SDS011;41912;51.022;3.664;2023-09-30T09:37:17;30.20;;;10.70;;
56043;SDS011;41912;51.022;3.664;2023-09-30T09:39:51;25.60;;;10.30;;
56043;SDS011;41912;51.022;3.664;2023-09-30T09:42:28;35.92;;;11.35;;
56043;SDS011;41912;51.022;3.664;2023-09-30T09:45:02;24.48;;;9.38;;
56043;SDS011;41912;51.022;3.664;2023-09-30T09:47:31;32.53;;;9.57;;
56043;SDS011;41912;51.022;3.664;2023-09-30T09:49:57;24.38;;;9.10;;
56043;SDS011;41912;51.022;3.664;2023-09-30T09:52:24;32.40;;;10.10;;
56043;SDS011;41912;51.022;3.664;2023-09-30T09:54:50;36.35;;;9.43;;
56043;SDS011;41912;51.022;3.664;2023-09-30T09:57:17;31.88;;;10.70;;
56043;SDS011;41912;51.022;3.664;2023-09-30T09:59:44;34.13;;;9.93;;
56043;SDS011;41912;51.022;3.664;2023-09-30T10:02:13;33.53;;;10.23;;
56043;SDS011;41912;51.022;3.664;2023-09-30T10:04:49;26.73;;;8.38;;
56043;SDS011;41912;51.022;3.664;2023-09-30T10:07:50;24.70;;;8.18;;
56043;SDS011;41912;51.022;3.664;2023-09-30T10:10:19;22.92;;;8.38;;
56043;SDS011;41912;51.022;3.664;2023-09-30T10:12:45;25.60;;;8.60;;
56043;SDS011;41912;51.022;3.664;2023-09-30T10:18:05;28.50;;;8.23;;
56043;SDS011;41912;51.022;3.664;2023-09-30T10:20:41;27.25;;;9.57;;
56043;SDS011;41912;51.022;3.664;2023-09-30T10:23:22;30.27;;;8.18;;
56043;SDS011;41912;51.022;3.664;2023-09-30T10:25:52;28.95;;;8.02;;
56043;SDS011;41912;51.022;3.664;2023-09-30T10:28:32;29.30;;;8.13;;
56043;SDS011;41912;51.022;3.664;2023-09-30T10:31:08;23.73;;;7.60;;
56043;SDS011;41912;51.022;3.664;2023-09-30T10:33:36;23.33;;;6.88;;
56043;SDS011;41912;51.022;3.664;2023-09-30T10:36:12;32.13;;;6.70;;
56043;SDS011;41912;51.022;3.664;2023-09-30T10:38:38;22.05;;;7.10;;
56043;SDS011;41912;51.022;3.664;2023-09-30T10:41:05;21.67;;;6.20;;
56043;SDS011;41912;51.022;3.664;2023-09-30T10:43:33;20.55;;;5.93;;
56043;SDS011;41912;51.022;3.664;2023-09-30T10:46:04;21.40;;;6.05;;
56043;SDS011;41912;51.022;3.664;2023-09-30T10:48:51;22.80;;;5.55;;
56043;SDS011;41912;51.022;3.664;2023-09-30T10:51:17;19.63;;;5.53;;
56043;SDS011;41912;51.022;3.664;2023-09-30T10:53:46;26.10;;;6.10;;
56043;SDS011;41912;51.022;3.664;2023-09-30T10:56:14;23.35;;;5.75;;
56043;SDS011;41912;51.022;3.664;2023-09-30T10:58:41;21.98;;;4.90;;
56043;SDS011;41912;51.022;3.664;2023-09-30T11:01:12;22.17;;;5.20;;
56043;SDS011;41912;51.022;3.664;2023-09-30T11:03:42;21.10;;;5.80;;
56043;SDS011;41912;51.022;3.664;2023-09-30T11:06:10;17.17;;;6.32;;
56043;SDS011;41912;51.022;3.664;2023-09-30T11:08:44;25.40;;;5.82;;
56043;SDS011;41912;51.022;3.664;2023-09-30T11:11:17;26.60;;;6.25;;
56043;SDS011;41912;51.022;3.664;2023-09-30T11:13:43;22.30;;;5.05;;
56043;SDS011;41912;51.022;3.664;2023-09-30T11:16:09;18.85;;;5.32;;
56043;SDS011;41912;51.022;3.664;2023-09-30T11:18:35;24.83;;;6.20;;
56043;SDS011;41912;51.022;3.664;2023-09-30T11:21:07;18.88;;;4.75;;
56043;SDS011;41912;51.022;3.664;2023-09-30T11:23:38;22.25;;;4.72;;
56043;SDS011;41912;51.022;3.664;2023-09-30T11:26:05;18.88;;;5.10;;
56043;SDS011;41912;51.022;3.664;2023-09-30T11:28:41;15.65;;;4.50;;
56043;SDS011;41912;51.022;3.664;2023-09-30T11:31:11;23.67;;;5.03;;
56043;SDS011;41912;51.022;3.664;2023-09-30T11:33:51;22.95;;;4.53;;
56043;SDS011;41912;51.022;3.664;2023-09-30T11:36:18;23.77;;;4.95;;
56043;SDS011;41912;51.022;3.664;2023-09-30T11:38:45;14.10;;;3.63;;
56043;SDS011;41912;51.022;3.664;2023-09-30T11:41:15;18.05;;;3.70;;
56043;SDS011;41912;51.022;3.664;2023-09-30T11:49:53;15.15;;;3.92;;
56043;SDS011;41912;51.022;3.664;2023-09-30T11:52:25;13.93;;;3.55;;
56043;SDS011;41912;51.022;3.664;2023-09-30T11:54:52;15.90;;;4.32;;
56043;SDS011;41912;51.022;3.664;2023-09-30T11:57:18;16.85;;;3.50;;
56043;SDS011;41912;51.022;3.664;2023-09-30T11:59:44;16.30;;;3.58;;
56043;SDS011;41912;51.022;3.664;2023-09-30T12:02:11;14.65;;;3.10;;
56043;SDS011;41912;51.022;3.664;2023-09-30T12:04:39;16.20;;;3.00;;
56043;SDS011;41912;51.022;3.664;2023-09-30T12:07:05;19.25;;;3.25;;
56043;SDS011;41912;51.022;3.664;2023-09-30T12:09:32;13.48;;;2.58;;
56043;SDS011;41912;51.022;3.664;2023-09-30T12:12:00;11.98;;;2.97;;
56043;SDS011;41912;51.022;3.664;2023-09-30T12:14:25;16.85;;;3.45;;
56043;SDS011;41912;51.022;3.664;2023-09-30T12:16:51;19.88;;;3.58;;
56043;SDS011;41912;51.022;3.664;2023-09-30T12:19:17;14.10;;;2.75;;
56043;SDS011;41912;51.022;3.664;2023-09-30T12:21:43;17.30;;;3.08;;
56043;SDS011;41912;51.022;3.664;2023-09-30T12:24:12;12.88;;;3.30;;
56043;SDS011;41912;51.022;3.664;2023-09-30T12:26:43;11.88;;;2.72;;
56043;SDS011;41912;51.022;3.664;2023-09-30T12:29:13;11.52;;;2.72;;
56043;SDS011;41912;51.022;3.664;2023-09-30T12:31:43;16.08;;;2.85;;
56043;SDS011;41912;51.022;3.664;2023-09-30T12:34:09;12.88;;;3.22;;
56043;SDS011;41912;51.022;3.664;2023-09-30T12:36:35;19.33;;;3.60;;
56043;SDS011;41912;51.022;3.664;2023-09-30T12:39:01;11.02;;;2.95;;
56043;SDS011;41912;51.022;3.664;2023-09-30T12:41:35;12.60;;;3.15;;
56043;SDS011;41912;51.022;3.664;2023-09-30T12:44:05;12.00;;;3.00;;
56043;SDS011;41912;51.022;3.664;2023-09-30T12:46:31;16.98;;;3.15;;
56043;SDS011;41912;51.022;3.664;2023-09-30T12:48:59;11.40;;;2.83;;
56043;SDS011;41912;51.022;3.664;2023-09-30T12:51:29;12.63;;;3.25;;
56043;SDS011;41912;51.022;3.664;2023-09-30T12:53:55;15.15;;;2.90;;
56043;SDS011;41912;51.022;3.664;2023-09-30T12:56:21;11.45;;;3.20;;
56043;SDS011;41912;51.022;3.664;2023-09-30T12:58:47;9.52;;;2.45;;
56043;SDS011;41912;51.022;3.664;2023-09-30T13:01:13;11.52;;;2.72;;
56043;SDS011;41912;51.022;3.664;2023-09-30T13:03:39;9.60;;;2.75;;
56043;SDS011;41912;51.022;3.664;2023-09-30T13:06:04;19.15;;;4.13;;
56043;SDS011;41912;51.022;3.664;2023-09-30T13:08:30;15.43;;;4.20;;
56043;SDS011;41912;51.022;3.664;2023-09-30T13:10:59;17.38;;;3.72;;
56043;SDS011;41912;51.022;3.664;2023-09-30T13:13:27;8.55;;;2.88;;
56043;SDS011;41912;51.022;3.664;2023-09-30T13:15:58;13.50;;;3.00;;
56043;SDS011;41912;51.022;3.664;2023-09-30T13:18:24;17.25;;;3.13;;
56043;SDS011;41912;51.022;3.664;2023-09-30T13:20:49;12.35;;;2.53;;
56043;SDS011;41912;51.022;3.664;2023-09-30T13:23:17;11.23;;;2.92;;
56043;SDS011;41912;51.022;3.664;2023-09-30T13:25:43;19.73;;;3.72;;
56043;SDS011;41912;51.022;3.664;2023-09-30T13:28:09;13.63;;;2.33;;
56043;SDS011;41912;51.022;3.664;2023-09-30T13:30:35;8.85;;;2.42;;
56043;SDS011;41912;51.022;3.664;2023-09-30T13:33:00;12.13;;;2.60;;
56043;SDS011;41912;51.022;3.664;2023-09-30T13:35:26;10.95;;;2.70;;
56043;SDS011;41912;51.022;3.664;2023-09-30T13:37:52;13.73;;;2.60;;
56043;SDS011;41912;51.022;3.664;2023-09-30T13:40:18;20.30;;;4.70;;
56043;SDS011;41912;51.022;3.664;2023-09-30T13:42:44;9.68;;;3.17;;
56043;SDS011;41912;51.022;3.664;2023-09-30T13:45:10;14.23;;;3.20;;
56043;SDS011;41912;51.022;3.664;2023-09-30T13:47:36;6.80;;;2.97;;
56043;SDS011;41912;51.022;3.664;2023-09-30T13:50:02;12.82;;;2.63;;
56043;SDS011;41912;51.022;3.664;2023-09-30T13:52:29;21.40;;;3.55;;
56043;SDS011;41912;51.022;3.664;2023-09-30T13:54:54;11.70;;;2.97;;
56043;SDS011;41912;51.022;3.664;2023-09-30T13:57:20;16.38;;;3.05;;
56043;SDS011;41912;51.022;3.664;2023-09-30T13:59:46;9.70;;;2.35;;
56043;SDS011;41912;51.022;3.664;2023-09-30T14:02:12;10.25;;;2.47;;
56043;SDS011;41912;51.022;3.664;2023-09-30T14:04:37;7.63;;;2.63;;
56043;SDS011;41912;51.022;3.664;2023-09-30T14:07:03;11.20;;;3.15;;
56043;SDS011;41912;51.022;3.664;2023-09-30T14:09:30;16.67;;;3.53;;
56043;SDS011;41912;51.022;3.664;2023-09-30T14:11:56;11.60;;;2.58;;
56043;SDS011;41912;51.022;3.664;2023-09-30T14:14:23;9.95;;;2.80;;
56043;SDS011;41912;51.022;3.664;2023-09-30T14:16:49;17.27;;;2.90;;
56043;SDS011;41912;51.022;3.664;2023-09-30T14:19:15;13.93;;;2.78;;
56043;SDS011;41912;51.022;3.664;2023-09-30T14:21:41;13.88;;;2.92;;
56043;SDS011;41912;51.022;3.664;2023-09-30T14:24:06;10.88;;;2.95;;
56043;SDS011;41912;51.022;3.664;2023-09-30T14:26:32;25.42;;;2.75;;
56043;SDS011;41912;51.022;3.664;2023-09-30T14:28:58;15.40;;;3.03;;
56043;SDS011;41912;51.022;3.664;2023-09-30T14:31:24;12.57;;;2.95;;
56043;SDS011;41912;51.022;3.664;2023-09-30T14:33:50;15.98;;;3.47;;
56043;SDS011;41912;51.022;3.664;2023-09-30T14:36:16;11.20;;;2.83;;
56043;SDS011;41912;51.022;3.664;2023-09-30T14:38:43;13.40;;;3.38;;
56043;SDS011;41912;51.022;3.664;2023-09-30T14:41:10;12.85;;;2.88;;
56043;SDS011;41912;51.022;3.664;2023-09-30T14:43:37;15.35;;;3.25;;